Innsbruck, Austria

2:40 PM CET on February 06, 2016 (GMT +0100)
HoettingWest | | Change Station
CLOSE
Current Station
Personal Weather Station
Location: Innsbruck, TIROL
Elevation: 1995 ft
Nearby Weather Stations

Elev 1995 ft 47.27 °N, 11.36 °E | Updated 35 seconds ago

Clear
Clear
52.2 °F
Feels Like 52.2 °F
N
6.5
Wind Variable Wind from WNW
Gusts 7.4 mph

Today
High -- | Low -- °F
--% Chance of Precip.
Yesterday
High -- | Low -- °F
Precip. -- in
Pressure 30.12 in
Visibility -9999.0 miles
Clouds
Dew Point 30 °F
Humidity 43%
Rainfall 0.00 in
Snow Depth Not available.
7:34 AM 5:23 PM
Waning Crescent, 5% visible
METAR LOWI 061320Z 27008KT CAVOK 10/02 Q1020 WS R26 TEMPO 13015G25KT
Pressure 30.12 in
Visibility -9999.0 miles
Clouds
Dew Point 30 °F
Humidity 43%
Rainfall 0.00 in
Snow Depth Not available.
7:34 AM 5:23 PM
Waning Crescent, 5% visible
METAR LOWI 061320Z 27008KT CAVOK 10/02 Q1020 WS R26 TEMPO 13015G25KT

10-Day Weather Forecast

Almanac

Astronomy

Feb. 06, 2016 Rise Set
Actual Time
Civil Twilight
Nautical Twilight
Astronomical Twilight
Moon
Length of Visible Light
Length of Day
Tomorrow will be .
, % of the Moon is Illuminated

Today's Extremes

Country Highs Country Lows

Community

WunderPhotos

Upload Photos

1,890,971 photos uploaded!

WunderBlog® & News

Nearby

Air Quality

  Air Quality AQ Index Pollutant
Not available.

Snow Depth

Station Depth Elevation

Earthquake Activity

City Distance Mag. Time & Date
Minimum magnitude displayed is 2.5.

Coastal Water Temperatures

Place Temperature

Stations

Nearby Weather Stations

Station Location Temp. Windchill Dew Point Humidity Wind Precip. Elev Updated Type